Virginia Beach, VA (23453)

11:50 AM EDT on April 21, 2015 (GMT -0400)
Lake Placid | | Change Station
CLOSE
Current Station
Personal Weather Station
Location: Virginia Beach, VA
Elevation: 25 ft
Nearby Weather Stations

Elev 25 ft 36.77 °N, 76.05 °W | Updated 22 seconds ago

Clear
Clear
70.3 °F
Feels Like 77 °F
N
2.5
Wind Variable Wind from NW
Gusts 4.9 mph

Today
High -- | Low -- °F
--% Chance of Precip.
Yesterday
High -- | Low -- °F
Precip. -- in
6:22 AM 7:43 PM
Waxing Crescent, 11% visible
Pressure 29.81 in
Visibility 10.0 miles
Clouds Few 3500 ft
Heat Index 77 °F
Dew Point 47 °F
Humidity 43%
Rainfall 0.00 in
Snow Depth Not available.
UV 8 out of 12
Pollen 9.50 out of 12
Air Quality Not available.
Flu Activity Local Activity
METAR KNTU 211456Z 34014KT 10SM FEW035 21/08 A2980 RMK AO2 SLP095 T02110083 51022

More Conditions Fewer Conditions

Pressure 29.81 in
Visibility 10.0 miles
Clouds Few 3500 ft
Heat Index 77 °F
Dew Point 47 °F
Humidity 43%
Rainfall 0.00 in
Snow Depth Not available.
UV 8 out of 12
Pollen 9.50 out of 12
Air Quality Not available.
Flu Activity Local Activity
METAR KNTU 211456Z 34014KT 10SM FEW035 21/08 A2980 RMK AO2 SLP095 T02110083 51022

More Conditions Fewer Conditions

10-Day Weather Forecast

Almanac

Astronomy

Apr. 21, 2015 Rise Set
Actual Time
Civil Twilight
Nautical Twilight
Astronomical Twilight
Moon
Length of Visible Light
Length of Day
Tomorrow will be .
, % of the Moon is Illuminated

Today's Extremes

State Highs State Lows

Community

WunderPhotos

Upload Photos

1,815,428 photos uploaded!

WunderBlogs® & News

Nearby

Air Quality

  Air Quality AQ Index Pollutant
Not available.

Snow Depth

Station Depth Elevation

Earthquake Activity

City Distance Mag. Time & Date
Minimum magnitude displayed is 2.5.

Coastal Water Temperatures

Place Temperature

Stations

Nearby Weather Stations

Station Location Temp. Windchill Dew Point Humidity Wind Precip. Elev Updated Type